sensor_id;sensor_type;location;lat;lon;timestamp;P1;durP1;ratioP1;P2;durP2;ratioP2
15952;SDS011;8075;47.766;8.846;2024-02-16T00:01:57;7.93;;;5.32;;
15952;SDS011;8075;47.766;8.846;2024-02-16T00:04:23;5.40;;;4.90;;
15952;SDS011;8075;47.766;8.846;2024-02-16T00:06:49;5.57;;;4.70;;
15952;SDS011;8075;47.766;8.846;2024-02-16T00:09:15;7.60;;;4.80;;
15952;SDS011;8075;47.766;8.846;2024-02-16T00:11:42;6.43;;;5.00;;
15952;SDS011;8075;47.766;8.846;2024-02-16T00:14:09;5.15;;;4.60;;
15952;SDS011;8075;47.766;8.846;2024-02-16T00:16:35;5.00;;;4.40;;
15952;SDS011;8075;47.766;8.846;2024-02-16T00:19:01;7.30;;;5.18;;
15952;SDS011;8075;47.766;8.846;2024-02-16T00:21:27;8.35;;;5.20;;
15952;SDS011;8075;47.766;8.846;2024-02-16T00:23:54;5.80;;;5.18;;
15952;SDS011;8075;47.766;8.846;2024-02-16T00:26:20;5.90;;;5.30;;
15952;SDS011;8075;47.766;8.846;2024-02-16T00:28:46;10.15;;;7.07;;
15952;SDS011;8075;47.766;8.846;2024-02-16T00:31:12;7.20;;;6.13;;
15952;SDS011;8075;47.766;8.846;2024-02-16T00:33:38;12.15;;;7.18;;
15952;SDS011;8075;47.766;8.846;2024-02-16T00:36:04;8.55;;;7.05;;
15952;SDS011;8075;47.766;8.846;2024-02-16T00:38:30;8.23;;;6.20;;
15952;SDS011;8075;47.766;8.846;2024-02-16T00:40:56;7.25;;;6.30;;
15952;SDS011;8075;47.766;8.846;2024-02-16T00:43:22;7.53;;;6.20;;
15952;SDS011;8075;47.766;8.846;2024-02-16T00:45:48;8.80;;;6.20;;
15952;SDS011;8075;47.766;8.846;2024-02-16T00:48:14;6.43;;;5.60;;
15952;SDS011;8075;47.766;8.846;2024-02-16T00:50:40;6.10;;;5.10;;
15952;SDS011;8075;47.766;8.846;2024-02-16T00:53:07;6.10;;;5.50;;
15952;SDS011;8075;47.766;8.846;2024-02-16T00:55:33;6.38;;;5.25;;
15952;SDS011;8075;47.766;8.846;2024-02-16T00:57:59;6.10;;;5.10;;
15952;SDS011;8075;47.766;8.846;2024-02-16T01:00:25;6.75;;;5.07;;
15952;SDS011;8075;47.766;8.846;2024-02-16T01:02:52;6.38;;;5.30;;
15952;SDS011;8075;47.766;8.846;2024-02-16T01:05:18;6.70;;;5.13;;
15952;SDS011;8075;47.766;8.846;2024-02-16T01:07:44;8.23;;;5.03;;
15952;SDS011;8075;47.766;8.846;2024-02-16T01:10:10;6.53;;;5.32;;
15952;SDS011;8075;47.766;8.846;2024-02-16T01:12:39;6.47;;;4.82;;
15952;SDS011;8075;47.766;8.846;2024-02-16T01:15:05;5.43;;;4.53;;
15952;SDS011;8075;47.766;8.846;2024-02-16T01:17:32;6.28;;;4.95;;
15952;SDS011;8075;47.766;8.846;2024-02-16T01:19:58;6.40;;;4.70;;
15952;SDS011;8075;47.766;8.846;2024-02-16T01:22:24;5.97;;;4.80;;
15952;SDS011;8075;47.766;8.846;2024-02-16T01:24:50;4.85;;;4.25;;
15952;SDS011;8075;47.766;8.846;2024-02-16T01:27:16;5.50;;;4.43;;
15952;SDS011;8075;47.766;8.846;2024-02-16T01:29:42;5.05;;;4.55;;
15952;SDS011;8075;47.766;8.846;2024-02-16T01:32:08;5.37;;;4.43;;
15952;SDS011;8075;47.766;8.846;2024-02-16T01:34:34;8.30;;;4.82;;
15952;SDS011;8075;47.766;8.846;2024-02-16T01:37:00;8.60;;;6.18;;
15952;SDS011;8075;47.766;8.846;2024-02-16T01:39:26;9.88;;;6.32;;
15952;SDS011;8075;47.766;8.846;2024-02-16T01:41:52;6.88;;;5.40;;
15952;SDS011;8075;47.766;8.846;2024-02-16T01:44:18;6.80;;;5.07;;
15952;SDS011;8075;47.766;8.846;2024-02-16T01:46:44;7.00;;;5.97;;
15952;SDS011;8075;47.766;8.846;2024-02-16T01:49:11;9.65;;;7.10;;
15952;SDS011;8075;47.766;8.846;2024-02-16T01:51:39;9.40;;;7.07;;
15952;SDS011;8075;47.766;8.846;2024-02-16T01:54:05;11.48;;;7.32;;
15952;SDS011;8075;47.766;8.846;2024-02-16T01:56:32;7.25;;;6.03;;
15952;SDS011;8075;47.766;8.846;2024-02-16T01:58:58;8.05;;;5.72;;
15952;SDS011;8075;47.766;8.846;2024-02-16T02:01:24;9.57;;;6.38;;
15952;SDS011;8075;47.766;8.846;2024-02-16T02:03:50;8.55;;;6.18;;
15952;SDS011;8075;47.766;8.846;2024-02-16T02:06:16;7.05;;;5.65;;
15952;SDS011;8075;47.766;8.846;2024-02-16T02:08:43;7.50;;;5.82;;
15952;SDS011;8075;47.766;8.846;2024-02-16T02:11:09;6.18;;;5.32;;
15952;SDS011;8075;47.766;8.846;2024-02-16T02:13:34;19.52;;;11.10;;
15952;SDS011;8075;47.766;8.846;2024-02-16T02:16:02;23.93;;;12.73;;
15952;SDS011;8075;47.766;8.846;2024-02-16T02:18:28;19.40;;;12.00;;
15952;SDS011;8075;47.766;8.846;2024-02-16T02:20:54;33.42;;;14.93;;
15952;SDS011;8075;47.766;8.846;2024-02-16T02:23:20;15.10;;;9.75;;
15952;SDS011;8075;47.766;8.846;2024-02-16T02:25:46;9.57;;;6.90;;
15952;SDS011;8075;47.766;8.846;2024-02-16T02:28:14;10.55;;;7.18;;
15952;SDS011;8075;47.766;8.846;2024-02-16T02:30:40;8.45;;;6.80;;
15952;SDS011;8075;47.766;8.846;2024-02-16T02:33:07;6.60;;;5.93;;
15952;SDS011;8075;47.766;8.846;2024-02-16T02:35:36;7.88;;;6.50;;
15952;SDS011;8075;47.766;8.846;2024-02-16T02:38:02;8.95;;;6.75;;
15952;SDS011;8075;47.766;8.846;2024-02-16T02:40:28;10.52;;;7.40;;
15952;SDS011;8075;47.766;8.846;2024-02-16T02:42:54;8.93;;;6.40;;
15952;SDS011;8075;47.766;8.846;2024-02-16T02:45:20;8.80;;;6.10;;
15952;SDS011;8075;47.766;8.846;2024-02-16T02:47:46;12.05;;;6.00;;
15952;SDS011;8075;47.766;8.846;2024-02-16T02:50:12;8.10;;;6.15;;
15952;SDS011;8075;47.766;8.846;2024-02-16T02:52:38;5.73;;;5.10;;
15952;SDS011;8075;47.766;8.846;2024-02-16T02:55:04;7.00;;;4.93;;
15952;SDS011;8075;47.766;8.846;2024-02-16T02:57:30;6.43;;;3.88;;
15952;SDS011;8075;47.766;8.846;2024-02-16T03:00:07;4.63;;;4.18;;
15952;SDS011;8075;47.766;8.846;2024-02-16T03:02:36;4.93;;;4.30;;
15952;SDS011;8075;47.766;8.846;2024-02-16T03:05:02;4.90;;;4.28;;
15952;SDS011;8075;47.766;8.846;2024-02-16T03:07:30;5.82;;;4.55;;
15952;SDS011;8075;47.766;8.846;2024-02-16T03:09:56;5.95;;;4.00;;
15952;SDS011;8075;47.766;8.846;2024-02-16T03:12:22;4.53;;;3.35;;
15952;SDS011;8075;47.766;8.846;2024-02-16T03:14:48;4.65;;;4.25;;
15952;SDS011;8075;47.766;8.846;2024-02-16T03:17:14;4.63;;;3.50;;
15952;SDS011;8075;47.766;8.846;2024-02-16T03:19:40;4.32;;;3.50;;
15952;SDS011;8075;47.766;8.846;2024-02-16T03:22:06;4.55;;;3.60;;
15952;SDS011;8075;47.766;8.846;2024-02-16T03:24:32;4.13;;;3.70;;
15952;SDS011;8075;47.766;8.846;2024-02-16T03:26:58;3.90;;;3.33;;
15952;SDS011;8075;47.766;8.846;2024-02-16T03:29:25;11.85;;;8.13;;
15952;SDS011;8075;47.766;8.846;2024-02-16T03:31:51;5.97;;;3.80;;
15952;SDS011;8075;47.766;8.846;2024-02-16T03:34:17;11.00;;;6.60;;
15952;SDS011;8075;47.766;8.846;2024-02-16T03:36:43;9.17;;;6.20;;
15952;SDS011;8075;47.766;8.846;2024-02-16T03:39:09;26.80;;;13.30;;
15952;SDS011;8075;47.766;8.846;2024-02-16T03:41:35;31.65;;;15.32;;
15952;SDS011;8075;47.766;8.846;2024-02-16T03:44:01;34.43;;;16.70;;
15952;SDS011;8075;47.766;8.846;2024-02-16T03:46:27;26.23;;;14.13;;
15952;SDS011;8075;47.766;8.846;2024-02-16T03:48:53;22.42;;;11.23;;
15952;SDS011;8075;47.766;8.846;2024-02-16T03:51:19;17.40;;;10.20;;
15952;SDS011;8075;47.766;8.846;2024-02-16T03:53:46;10.43;;;7.20;;
15952;SDS011;8075;47.766;8.846;2024-02-16T03:56:12;4.78;;;3.85;;
15952;SDS011;8075;47.766;8.846;2024-02-16T03:58:38;11.70;;;7.60;;
15952;SDS011;8075;47.766;8.846;2024-02-16T04:01:04;4.18;;;3.78;;
15952;SDS011;8075;47.766;8.846;2024-02-16T04:03:33;4.90;;;3.90;;
15952;SDS011;8075;47.766;8.846;2024-02-16T04:06:00;4.25;;;3.35;;
15952;SDS011;8075;47.766;8.846;2024-02-16T04:08:26;5.60;;;5.00;;
15952;SDS011;8075;47.766;8.846;2024-02-16T04:10:52;5.03;;;4.50;;
15952;SDS011;8075;47.766;8.846;2024-02-16T04:13:18;5.10;;;4.05;;
15952;SDS011;8075;47.766;8.846;2024-02-16T04:15:44;5.57;;;3.90;;
15952;SDS011;8075;47.766;8.846;2024-02-16T04:18:10;5.57;;;4.22;;
15952;SDS011;8075;47.766;8.846;2024-02-16T04:20:36;4.93;;;3.70;;
15952;SDS011;8075;47.766;8.846;2024-02-16T04:23:03;5.82;;;3.60;;
15952;SDS011;8075;47.766;8.846;2024-02-16T04:25:29;5.57;;;4.03;;
15952;SDS011;8075;47.766;8.846;2024-02-16T04:27:55;5.97;;;3.90;;
15952;SDS011;8075;47.766;8.846;2024-02-16T04:30:21;5.32;;;4.10;;
15952;SDS011;8075;47.766;8.846;2024-02-16T04:32:47;5.28;;;4.00;;
15952;SDS011;8075;47.766;8.846;2024-02-16T04:35:13;4.68;;;3.70;;
15952;SDS011;8075;47.766;8.846;2024-02-16T04:37:40;4.47;;;3.60;;
15952;SDS011;8075;47.766;8.846;2024-02-16T04:40:06;6.20;;;4.00;;
15952;SDS011;8075;47.766;8.846;2024-02-16T04:42:33;4.22;;;3.50;;
15952;SDS011;8075;47.766;8.846;2024-02-16T04:44:59;4.03;;;3.50;;
15952;SDS011;8075;47.766;8.846;2024-02-16T04:47:25;5.50;;;3.33;;
15952;SDS011;8075;47.766;8.846;2024-02-16T04:49:52;4.38;;;3.30;;
15952;SDS011;8075;47.766;8.846;2024-02-16T04:52:18;4.00;;;3.53;;
15952;SDS011;8075;47.766;8.846;2024-02-16T04:54:44;4.68;;;3.50;;
15952;SDS011;8075;47.766;8.846;2024-02-16T04:57:10;4.18;;;3.20;;
15952;SDS011;8075;47.766;8.846;2024-02-16T04:59:36;3.22;;;2.90;;
15952;SDS011;8075;47.766;8.846;2024-02-16T05:02:02;4.97;;;3.45;;
15952;SDS011;8075;47.766;8.846;2024-02-16T05:04:29;4.10;;;3.72;;
15952;SDS011;8075;47.766;8.846;2024-02-16T05:06:54;4.20;;;3.63;;
15952;SDS011;8075;47.766;8.846;2024-02-16T05:09:22;5.68;;;3.72;;
15952;SDS011;8075;47.766;8.846;2024-02-16T05:11:49;3.80;;;3.38;;
15952;SDS011;8075;47.766;8.846;2024-02-16T05:14:16;5.53;;;3.90;;
15952;SDS011;8075;47.766;8.846;2024-02-16T05:16:46;6.90;;;4.07;;
15952;SDS011;8075;47.766;8.846;2024-02-16T05:19:12;6.47;;;3.55;;
15952;SDS011;8075;47.766;8.846;2024-02-16T05:21:38;4.40;;;3.42;;
15952;SDS011;8075;47.766;8.846;2024-02-16T05:24:04;3.65;;;3.33;;
15952;SDS011;8075;47.766;8.846;2024-02-16T05:26:30;4.00;;;3.33;;
15952;SDS011;8075;47.766;8.846;2024-02-16T05:28:56;4.65;;;3.42;;
15952;SDS011;8075;47.766;8.846;2024-02-16T05:31:22;3.63;;;3.23;;
15952;SDS011;8075;47.766;8.846;2024-02-16T05:33:49;4.22;;;3.22;;
15952;SDS011;8075;47.766;8.846;2024-02-16T05:36:19;9.27;;;4.20;;
15952;SDS011;8075;47.766;8.846;2024-02-16T05:38:48;5.03;;;3.60;;
15952;SDS011;8075;47.766;8.846;2024-02-16T05:41:17;6.63;;;4.18;;
15952;SDS011;8075;47.766;8.846;2024-02-16T05:43:44;9.00;;;5.72;;
15952;SDS011;8075;47.766;8.846;2024-02-16T05:46:16;7.82;;;4.70;;
15952;SDS011;8075;47.766;8.846;2024-02-16T05:48:42;7.57;;;5.13;;
15952;SDS011;8075;47.766;8.846;2024-02-16T05:51:09;7.15;;;5.20;;
15952;SDS011;8075;47.766;8.846;2024-02-16T05:53:38;10.18;;;5.35;;
15952;SDS011;8075;47.766;8.846;2024-02-16T05:56:05;9.60;;;5.75;;
15952;SDS011;8075;47.766;8.846;2024-02-16T05:58:31;7.60;;;5.53;;
15952;SDS011;8075;47.766;8.846;2024-02-16T06:00:58;5.95;;;5.07;;
15952;SDS011;8075;47.766;8.846;2024-02-16T06:03:24;6.80;;;5.28;;
15952;SDS011;8075;47.766;8.846;2024-02-16T06:05:52;5.43;;;4.93;;
15952;SDS011;8075;47.766;8.846;2024-02-16T06:08:18;7.22;;;5.40;;
15952;SDS011;8075;47.766;8.846;2024-02-16T06:10:44;5.43;;;4.93;;
15952;SDS011;8075;47.766;8.846;2024-02-16T06:13:16;6.22;;;5.25;;
15952;SDS011;8075;47.766;8.846;2024-02-16T06:15:42;5.05;;;4.55;;
15952;SDS011;8075;47.766;8.846;2024-02-16T06:18:08;5.82;;;4.68;;
15952;SDS011;8075;47.766;8.846;2024-02-16T06:20:34;6.18;;;4.60;;
15952;SDS011;8075;47.766;8.846;2024-02-16T06:23:00;5.47;;;4.30;;
15952;SDS011;8075;47.766;8.846;2024-02-16T06:25:27;5.22;;;4.22;;
15952;SDS011;8075;47.766;8.846;2024-02-16T06:27:53;5.30;;;4.13;;
15952;SDS011;8075;47.766;8.846;2024-02-16T06:30:19;6.90;;;4.85;;
15952;SDS011;8075;47.766;8.846;2024-02-16T06:32:45;5.33;;;4.37;;
15952;SDS011;8075;47.766;8.846;2024-02-16T06:35:11;5.38;;;4.07;;
15952;SDS011;8075;47.766;8.846;2024-02-16T06:37:37;5.18;;;4.03;;
15952;SDS011;8075;47.766;8.846;2024-02-16T06:40:04;4.45;;;3.95;;
15952;SDS011;8075;47.766;8.846;2024-02-16T06:42:31;4.90;;;4.18;;
15952;SDS011;8075;47.766;8.846;2024-02-16T06:44:58;4.30;;;3.90;;
15952;SDS011;8075;47.766;8.846;2024-02-16T06:47:25;5.20;;;4.70;;
15952;SDS011;8075;47.766;8.846;2024-02-16T06:49:51;5.28;;;4.40;;
15952;SDS011;8075;47.766;8.846;2024-02-16T06:52:17;6.63;;;4.20;;
15952;SDS011;8075;47.766;8.846;2024-02-16T06:54:43;4.75;;;4.18;;
15952;SDS011;8075;47.766;8.846;2024-02-16T06:57:09;5.77;;;4.50;;
15952;SDS011;8075;47.766;8.846;2024-02-16T06:59:35;4.40;;;3.92;;
15952;SDS011;8075;47.766;8.846;2024-02-16T07:02:01;3.92;;;3.60;;
15952;SDS011;8075;47.766;8.846;2024-02-16T07:04:28;4.80;;;4.30;;
15952;SDS011;8075;47.766;8.846;2024-02-16T07:06:53;4.32;;;3.92;;
15952;SDS011;8075;47.766;8.846;2024-02-16T07:09:19;4.93;;;3.80;;
15952;SDS011;8075;47.766;8.846;2024-02-16T07:11:47;5.28;;;3.90;;
15952;SDS011;8075;47.766;8.846;2024-02-16T07:14:15;4.95;;;4.07;;
15952;SDS011;8075;47.766;8.846;2024-02-16T07:16:41;7.00;;;5.05;;
15952;SDS011;8075;47.766;8.846;2024-02-16T07:19:07;7.03;;;5.25;;
15952;SDS011;8075;47.766;8.846;2024-02-16T07:21:34;4.97;;;3.90;;
15952;SDS011;8075;47.766;8.846;2024-02-16T07:24:00;4.35;;;3.95;;
15952;SDS011;8075;47.766;8.846;2024-02-16T07:26:26;6.38;;;4.18;;
15952;SDS011;8075;47.766;8.846;2024-02-16T07:28:54;5.05;;;4.20;;
15952;SDS011;8075;47.766;8.846;2024-02-16T07:31:20;5.80;;;4.00;;
15952;SDS011;8075;47.766;8.846;2024-02-16T07:33:46;5.07;;;3.97;;
15952;SDS011;8075;47.766;8.846;2024-02-16T07:36:12;5.28;;;3.58;;
15952;SDS011;8075;47.766;8.846;2024-02-16T07:38:39;4.10;;;3.53;;
15952;SDS011;8075;47.766;8.846;2024-02-16T07:41:05;3.90;;;3.60;;
15952;SDS011;8075;47.766;8.846;2024-02-16T07:43:32;3.60;;;3.28;;
15952;SDS011;8075;47.766;8.846;2024-02-16T07:45:58;3.70;;;3.35;;
15952;SDS011;8075;47.766;8.846;2024-02-16T07:48:24;4.43;;;3.78;;
15952;SDS011;8075;47.766;8.846;2024-02-16T07:50:50;5.50;;;4.90;;
15952;SDS011;8075;47.766;8.846;2024-02-16T07:53:16;5.38;;;4.32;;
15952;SDS011;8075;47.766;8.846;2024-02-16T07:55:42;5.10;;;4.32;;
15952;SDS011;8075;47.766;8.846;2024-02-16T07:58:08;4.38;;;3.97;;
15952;SDS011;8075;47.766;8.846;2024-02-16T08:00:34;4.38;;;4.00;;
15952;SDS011;8075;47.766;8.846;2024-02-16T08:03:00;4.43;;;4.03;;
15952;SDS011;8075;47.766;8.846;2024-02-16T08:05:27;4.15;;;3.75;;
15952;SDS011;8075;47.766;8.846;2024-02-16T08:07:53;4.38;;;3.67;;
15952;SDS011;8075;47.766;8.846;2024-02-16T08:10:20;4.60;;;4.15;;
15952;SDS011;8075;47.766;8.846;2024-02-16T08:12:46;4.70;;;4.30;;
15952;SDS011;8075;47.766;8.846;2024-02-16T08:15:12;6.22;;;5.13;;
15952;SDS011;8075;47.766;8.846;2024-02-16T08:17:39;5.43;;;4.93;;
15952;SDS011;8075;47.766;8.846;2024-02-16T08:20:05;5.80;;;5.20;;
15952;SDS011;8075;47.766;8.846;2024-02-16T08:22:32;5.70;;;5.20;;
15952;SDS011;8075;47.766;8.846;2024-02-16T08:24:59;6.60;;;6.00;;
15952;SDS011;8075;47.766;8.846;2024-02-16T08:27:25;6.53;;;5.90;;
15952;SDS011;8075;47.766;8.846;2024-02-16T08:29:51;6.32;;;5.70;;
15952;SDS011;8075;47.766;8.846;2024-02-16T08:32:17;6.57;;;5.70;;
15952;SDS011;8075;47.766;8.846;2024-02-16T08:34:45;7.72;;;7.03;;
15952;SDS011;8075;47.766;8.846;2024-02-16T08:37:13;7.07;;;6.47;;
15952;SDS011;8075;47.766;8.846;2024-02-16T08:39:39;8.05;;;7.25;;
15952;SDS011;8075;47.766;8.846;2024-02-16T08:42:06;7.20;;;6.35;;
15952;SDS011;8075;47.766;8.846;2024-02-16T08:44:33;7.47;;;6.78;;
15952;SDS011;8075;47.766;8.846;2024-02-16T08:46:59;8.07;;;7.28;;
15952;SDS011;8075;47.766;8.846;2024-02-16T08:49:25;8.15;;;6.63;;
15952;SDS011;8075;47.766;8.846;2024-02-16T08:51:52;7.70;;;6.90;;
15952;SDS011;8075;47.766;8.846;2024-02-16T08:54:18;7.53;;;6.82;;
15952;SDS011;8075;47.766;8.846;2024-02-16T08:56:47;8.25;;;7.53;;
15952;SDS011;8075;47.766;8.846;2024-02-16T08:59:13;11.23;;;10.13;;
15952;SDS011;8075;47.766;8.846;2024-02-16T09:01:39;8.95;;;8.07;;
15952;SDS011;8075;47.766;8.846;2024-02-16T09:04:05;12.90;;;9.35;;
15952;SDS011;8075;47.766;8.846;2024-02-16T09:06:31;18.40;;;14.65;;
15952;SDS011;8075;47.766;8.846;2024-02-16T09:08:59;10.95;;;9.73;;
15952;SDS011;8075;47.766;8.846;2024-02-16T09:11:25;13.93;;;9.00;;
15952;SDS011;8075;47.766;8.846;2024-02-16T09:13:52;10.00;;;8.77;;
15952;SDS011;8075;47.766;8.846;2024-02-16T09:16:19;9.52;;;8.48;;
15952;SDS011;8075;47.766;8.846;2024-02-16T09:18:45;10.95;;;9.88;;
15952;SDS011;8075;47.766;8.846;2024-02-16T09:21:13;10.73;;;9.02;;
15952;SDS011;8075;47.766;8.846;2024-02-16T09:23:39;15.52;;;10.77;;
15952;SDS011;8075;47.766;8.846;2024-02-16T09:26:05;14.27;;;10.07;;
15952;SDS011;8075;47.766;8.846;2024-02-16T09:28:38;11.00;;;10.00;;
15952;SDS011;8075;47.766;8.846;2024-02-16T09:31:04;13.98;;;10.60;;
15952;SDS011;8075;47.766;8.846;2024-02-16T09:33:30;14.40;;;10.40;;
15952;SDS011;8075;47.766;8.846;2024-02-16T09:35:56;11.57;;;10.38;;
15952;SDS011;8075;47.766;8.846;2024-02-16T09:38:22;13.05;;;10.43;;
15952;SDS011;8075;47.766;8.846;2024-02-16T09:40:49;11.60;;;10.45;;
15952;SDS011;8075;47.766;8.846;2024-02-16T09:43:25;12.27;;;10.43;;
15952;SDS011;8075;47.766;8.846;2024-02-16T09:45:53;11.75;;;10.45;;
15952;SDS011;8075;47.766;8.846;2024-02-16T09:48:19;12.93;;;10.00;;
15952;SDS011;8075;47.766;8.846;2024-02-16T09:50:45;16.70;;;11.00;;
15952;SDS011;8075;47.766;8.846;2024-02-16T09:53:11;15.20;;;9.60;;
15952;SDS011;8075;47.766;8.846;2024-02-16T09:55:38;9.30;;;8.38;;
15952;SDS011;8075;47.766;8.846;2024-02-16T09:58:04;9.80;;;8.57;;
15952;SDS011;8075;47.766;8.846;2024-02-16T10:00:30;12.73;;;9.52;;
15952;SDS011;8075;47.766;8.846;2024-02-16T10:02:57;14.03;;;10.00;;
15952;SDS011;8075;47.766;8.846;2024-02-16T10:05:22;10.35;;;9.25;;
15952;SDS011;8075;47.766;8.846;2024-02-16T10:07:48;15.60;;;9.88;;
15952;SDS011;8075;47.766;8.846;2024-02-16T10:10:27;11.48;;;9.27;;
15952;SDS011;8075;47.766;8.846;2024-02-16T10:13:02;9.03;;;8.00;;
15952;SDS011;8075;47.766;8.846;2024-02-16T10:15:29;9.02;;;8.13;;
15952;SDS011;8075;47.766;8.846;2024-02-16T10:18:01;9.23;;;7.65;;
15952;SDS011;8075;47.766;8.846;2024-02-16T10:20:27;7.97;;;6.97;;
15952;SDS011;8075;47.766;8.846;2024-02-16T10:23:04;9.30;;;7.57;;
15952;SDS011;8075;47.766;8.846;2024-02-16T10:25:30;7.40;;;6.70;;
15952;SDS011;8075;47.766;8.846;2024-02-16T10:27:57;8.02;;;7.25;;
15952;SDS011;8075;47.766;8.846;2024-02-16T10:30:28;7.80;;;7.00;;
15952;SDS011;8075;47.766;8.846;2024-02-16T10:32:55;7.20;;;6.50;;
15952;SDS011;8075;47.766;8.846;2024-02-16T10:35:21;7.70;;;6.57;;
15952;SDS011;8075;47.766;8.846;2024-02-16T10:37:49;8.65;;;6.57;;
15952;SDS011;8075;47.766;8.846;2024-02-16T10:40:15;7.00;;;6.30;;
15952;SDS011;8075;47.766;8.846;2024-02-16T10:42:45;6.28;;;5.47;;
15952;SDS011;8075;47.766;8.846;2024-02-16T10:45:11;8.65;;;5.68;;
15952;SDS011;8075;47.766;8.846;2024-02-16T10:47:40;6.07;;;5.55;;
15952;SDS011;8075;47.766;8.846;2024-02-16T10:50:06;7.05;;;5.40;;
15952;SDS011;8075;47.766;8.846;2024-02-16T10:52:34;6.35;;;5.72;;
15952;SDS011;8075;47.766;8.846;2024-02-16T10:55:01;5.60;;;5.10;;
15952;SDS011;8075;47.766;8.846;2024-02-16T10:57:28;7.07;;;5.28;;
15952;SDS011;8075;47.766;8.846;2024-02-16T10:59:55;5.88;;;5.32;;
15952;SDS011;8075;47.766;8.846;2024-02-16T11:02:21;6.40;;;5.67;;
15952;SDS011;8075;47.766;8.846;2024-02-16T11:04:48;6.57;;;5.88;;
15952;SDS011;8075;47.766;8.846;2024-02-16T11:07:15;7.18;;;5.50;;
15952;SDS011;8075;47.766;8.846;2024-02-16T11:09:42;6.03;;;5.30;;
15952;SDS011;8075;47.766;8.846;2024-02-16T11:12:09;6.18;;;5.57;;
15952;SDS011;8075;47.766;8.846;2024-02-16T11:14:40;6.00;;;5.40;;
15952;SDS011;8075;47.766;8.846;2024-02-16T11:17:08;8.75;;;5.80;;
15952;SDS011;8075;47.766;8.846;2024-02-16T11:19:37;6.05;;;5.50;;
15952;SDS011;8075;47.766;8.846;2024-02-16T11:22:06;5.43;;;4.93;;
15952;SDS011;8075;47.766;8.846;2024-02-16T11:24:36;7.88;;;5.70;;
15952;SDS011;8075;47.766;8.846;2024-02-16T11:27:02;5.88;;;5.03;;
15952;SDS011;8075;47.766;8.846;2024-02-16T11:29:33;5.90;;;5.05;;
15952;SDS011;8075;47.766;8.846;2024-02-16T11:31:59;5.63;;;5.03;;
15952;SDS011;8075;47.766;8.846;2024-02-16T11:34:26;7.05;;;5.07;;
15952;SDS011;8075;47.766;8.846;2024-02-16T11:36:53;7.82;;;5.00;;
15952;SDS011;8075;47.766;8.846;2024-02-16T11:39:19;6.97;;;4.82;;
15952;SDS011;8075;47.766;8.846;2024-02-16T11:41:45;5.10;;;4.60;;
15952;SDS011;8075;47.766;8.846;2024-02-16T11:44:12;5.65;;;4.82;;
15952;SDS011;8075;47.766;8.846;2024-02-16T11:46:41;5.78;;;4.88;;
15952;SDS011;8075;47.766;8.846;2024-02-16T11:49:07;5.40;;;4.72;;
15952;SDS011;8075;47.766;8.846;2024-02-16T11:51:34;6.57;;;4.72;;
15952;SDS011;8075;47.766;8.846;2024-02-16T11:54:00;6.15;;;4.53;;
15952;SDS011;8075;47.766;8.846;2024-02-16T11:56:26;5.30;;;4.80;;
15952;SDS011;8075;47.766;8.846;2024-02-16T11:58:52;6.60;;;4.55;;
15952;SDS011;8075;47.766;8.846;2024-02-16T12:01:18;7.60;;;5.10;;
15952;SDS011;8075;47.766;8.846;2024-02-16T12:03:46;4.88;;;4.47;;
15952;SDS011;8075;47.766;8.846;2024-02-16T12:06:19;4.78;;;4.38;;
15952;SDS011;8075;47.766;8.846;2024-02-16T12:08:46;5.30;;;4.50;;
15952;SDS011;8075;47.766;8.846;2024-02-16T12:11:12;4.57;;;3.90;;
15952;SDS011;8075;47.766;8.846;2024-02-16T12:13:39;7.40;;;5.70;;
15952;SDS011;8075;47.766;8.846;2024-02-16T12:16:05;4.53;;;3.75;;
15952;SDS011;8075;47.766;8.846;2024-02-16T12:18:34;3.85;;;3.40;;
15952;SDS011;8075;47.766;8.846;2024-02-16T12:21:04;8.10;;;5.93;;
15952;SDS011;8075;47.766;8.846;2024-02-16T12:23:36;5.55;;;4.25;;
15952;SDS011;8075;47.766;8.846;2024-02-16T12:26:02;4.25;;;3.33;;
15952;SDS011;8075;47.766;8.846;2024-02-16T12:28:29;4.30;;;3.63;;
15952;SDS011;8075;47.766;8.846;2024-02-16T12:31:00;4.57;;;3.20;;
15952;SDS011;8075;47.766;8.846;2024-02-16T12:33:26;5.30;;;3.65;;
15952;SDS011;8075;47.766;8.846;2024-02-16T12:35:52;5.30;;;3.70;;
15952;SDS011;8075;47.766;8.846;2024-02-16T12:38:19;5.95;;;3.38;;
15952;SDS011;8075;47.766;8.846;2024-02-16T12:40:48;5.25;;;3.40;;
15952;SDS011;8075;47.766;8.846;2024-02-16T12:43:15;4.00;;;3.40;;
15952;SDS011;8075;47.766;8.846;2024-02-16T12:45:41;5.50;;;3.40;;
15952;SDS011;8075;47.766;8.846;2024-02-16T12:48:07;4.68;;;3.25;;
15952;SDS011;8075;47.766;8.846;2024-02-16T12:50:38;4.32;;;3.70;;
15952;SDS011;8075;47.766;8.846;2024-02-16T12:53:05;4.65;;;3.40;;
15952;SDS011;8075;47.766;8.846;2024-02-16T12:55:31;5.37;;;3.40;;
15952;SDS011;8075;47.766;8.846;2024-02-16T12:57:58;4.30;;;3.70;;
15952;SDS011;8075;47.766;8.846;2024-02-16T13:00:24;3.40;;;3.00;;
15952;SDS011;8075;47.766;8.846;2024-02-16T13:02:50;4.93;;;3.00;;
15952;SDS011;8075;47.766;8.846;2024-02-16T13:05:16;6.25;;;3.30;;
15952;SDS011;8075;47.766;8.846;2024-02-16T13:07:42;6.10;;;3.35;;
15952;SDS011;8075;47.766;8.846;2024-02-16T13:10:08;5.50;;;3.08;;
15952;SDS011;8075;47.766;8.846;2024-02-16T13:12:34;4.97;;;3.50;;
15952;SDS011;8075;47.766;8.846;2024-02-16T13:15:02;5.38;;;2.55;;
15952;SDS011;8075;47.766;8.846;2024-02-16T13:17:28;3.13;;;1.85;;
15952;SDS011;8075;47.766;8.846;2024-02-16T13:19:54;4.85;;;1.60;;
15952;SDS011;8075;47.766;8.846;2024-02-16T13:22:22;3.42;;;1.70;;
15952;SDS011;8075;47.766;8.846;2024-02-16T13:24:48;4.38;;;1.77;;
15952;SDS011;8075;47.766;8.846;2024-02-16T13:27:16;4.30;;;1.52;;
15952;SDS011;8075;47.766;8.846;2024-02-16T13:29:42;2.90;;;1.73;;
15952;SDS011;8075;47.766;8.846;2024-02-16T13:32:08;4.07;;;1.60;;
15952;SDS011;8075;47.766;8.846;2024-02-16T13:34:34;4.10;;;1.75;;
15952;SDS011;8075;47.766;8.846;2024-02-16T13:37:00;3.88;;;1.67;;
15952;SDS011;8075;47.766;8.846;2024-02-16T13:39:26;6.07;;;1.80;;
15952;SDS011;8075;47.766;8.846;2024-02-16T13:41:52;3.83;;;1.70;;
15952;SDS011;8075;47.766;8.846;2024-02-16T13:44:18;4.00;;;1.60;;
15952;SDS011;8075;47.766;8.846;2024-02-16T13:46:46;3.73;;;1.60;;
15952;SDS011;8075;47.766;8.846;2024-02-16T13:49:15;4.43;;;1.63;;
15952;SDS011;8075;47.766;8.846;2024-02-16T13:51:41;3.28;;;1.33;;
15952;SDS011;8075;47.766;8.846;2024-02-16T13:54:07;3.40;;;1.40;;
15952;SDS011;8075;47.766;8.846;2024-02-16T13:56:33;3.42;;;1.70;;
15952;SDS011;8075;47.766;8.846;2024-02-16T13:59:04;3.58;;;1.77;;
15952;SDS011;8075;47.766;8.846;2024-02-16T14:01:30;2.77;;;1.40;;
15952;SDS011;8075;47.766;8.846;2024-02-16T14:03:56;4.05;;;1.60;;
15952;SDS011;8075;47.766;8.846;2024-02-16T14:06:22;4.10;;;1.40;;
15952;SDS011;8075;47.766;8.846;2024-02-16T14:08:48;4.57;;;1.60;;
15952;SDS011;8075;47.766;8.846;2024-02-16T14:11:16;3.97;;;1.60;;
15952;SDS011;8075;47.766;8.846;2024-02-16T14:13:42;3.67;;;1.90;;
15952;SDS011;8075;47.766;8.846;2024-02-16T14:16:08;2.70;;;1.60;;
15952;SDS011;8075;47.766;8.846;2024-02-16T14:18:35;4.75;;;1.60;;
15952;SDS011;8075;47.766;8.846;2024-02-16T14:21:01;2.92;;;1.50;;
15952;SDS011;8075;47.766;8.846;2024-02-16T14:23:29;5.63;;;2.03;;
15952;SDS011;8075;47.766;8.846;2024-02-16T14:25:55;3.72;;;2.15;;
15952;SDS011;8075;47.766;8.846;2024-02-16T14:28:21;4.63;;;1.65;;
15952;SDS011;8075;47.766;8.846;2024-02-16T14:30:47;3.58;;;1.70;;
15952;SDS011;8075;47.766;8.846;2024-02-16T14:33:13;3.42;;;1.80;;
15952;SDS011;8075;47.766;8.846;2024-02-16T14:35:41;2.35;;;1.52;;
15952;SDS011;8075;47.766;8.846;2024-02-16T14:38:07;4.27;;;1.90;;
15952;SDS011;8075;47.766;8.846;2024-02-16T14:40:33;3.60;;;1.85;;
15952;SDS011;8075;47.766;8.846;2024-02-16T14:43:00;4.60;;;1.70;;
15952;SDS011;8075;47.766;8.846;2024-02-16T14:45:26;3.22;;;1.58;;
15952;SDS011;8075;47.766;8.846;2024-02-16T14:47:52;2.83;;;1.42;;
15952;SDS011;8075;47.766;8.846;2024-02-16T14:50:18;4.40;;;1.63;;
15952;SDS011;8075;47.766;8.846;2024-02-16T14:52:44;2.67;;;1.30;;
15952;SDS011;8075;47.766;8.846;2024-02-16T14:55:11;2.75;;;1.60;;